sensor_id;sensor_type;location;lat;lon;timestamp;temperature;humidity
5960;DHT22;3006;50.956;7.002;2024-03-02T00:01:27;7.80;77.20
5960;DHT22;3006;50.956;7.002;2024-03-02T00:03:56;7.80;77.00
5960;DHT22;3006;50.956;7.002;2024-03-02T00:06:24;7.80;77.10
5960;DHT22;3006;50.956;7.002;2024-03-02T00:08:58;7.80;77.10
5960;DHT22;3006;50.956;7.002;2024-03-02T00:11:28;7.80;77.10
5960;DHT22;3006;50.956;7.002;2024-03-02T00:13:57;7.90;76.90
5960;DHT22;3006;50.956;7.002;2024-03-02T00:16:30;8.00;76.70
5960;DHT22;3006;50.956;7.002;2024-03-02T00:19:02;8.00;76.60
5960;DHT22;3006;50.956;7.002;2024-03-02T00:21:31;7.90;76.60
5960;DHT22;3006;50.956;7.002;2024-03-02T00:24:09;7.90;76.70
5960;DHT22;3006;50.956;7.002;2024-03-02T00:26:47;8.00;76.50
5960;DHT22;3006;50.956;7.002;2024-03-02T00:29:17;8.00;76.60
5960;DHT22;3006;50.956;7.002;2024-03-02T00:31:46;8.00;76.40
5960;DHT22;3006;50.956;7.002;2024-03-02T00:34:16;8.00;76.20
5960;DHT22;3006;50.956;7.002;2024-03-02T00:36:45;8.00;76.10
5960;DHT22;3006;50.956;7.002;2024-03-02T00:39:17;8.00;75.90
5960;DHT22;3006;50.956;7.002;2024-03-02T00:41:48;8.10;75.70
5960;DHT22;3006;50.956;7.002;2024-03-02T00:44:19;8.10;75.70
5960;DHT22;3006;50.956;7.002;2024-03-02T00:46:49;8.10;75.50
5960;DHT22;3006;50.956;7.002;2024-03-02T00:49:20;8.10;75.20
5960;DHT22;3006;50.956;7.002;2024-03-02T00:51:50;8.10;75.30
5960;DHT22;3006;50.956;7.002;2024-03-02T00:54:20;8.20;75.20
5960;DHT22;3006;50.956;7.002;2024-03-02T00:56:58;8.20;75.00
5960;DHT22;3006;50.956;7.002;2024-03-02T00:59:27;8.20;75.10
5960;DHT22;3006;50.956;7.002;2024-03-02T01:01:56;8.20;75.10
5960;DHT22;3006;50.956;7.002;2024-03-02T01:04:25;8.10;75.40
5960;DHT22;3006;50.956;7.002;2024-03-02T01:06:53;8.10;75.30
5960;DHT22;3006;50.956;7.002;2024-03-02T01:09:22;8.10;75.20
5960;DHT22;3006;50.956;7.002;2024-03-02T01:11:51;8.10;75.40
5960;DHT22;3006;50.956;7.002;2024-03-02T01:14:21;8.10;75.30
5960;DHT22;3006;50.956;7.002;2024-03-02T01:16:52;8.00;75.40
5960;DHT22;3006;50.956;7.002;2024-03-02T01:19:21;8.10;75.30
5960;DHT22;3006;50.956;7.002;2024-03-02T01:21:50;8.00;75.40
5960;DHT22;3006;50.956;7.002;2024-03-02T01:24:18;8.00;75.30
5960;DHT22;3006;50.956;7.002;2024-03-02T01:26:47;8.00;75.40
5960;DHT22;3006;50.956;7.002;2024-03-02T01:29:16;8.00;75.40
5960;DHT22;3006;50.956;7.002;2024-03-02T01:31:47;8.00;75.10
5960;DHT22;3006;50.956;7.002;2024-03-02T01:34:15;8.00;75.20
5960;DHT22;3006;50.956;7.002;2024-03-02T01:36:44;8.00;75.50
5960;DHT22;3006;50.956;7.002;2024-03-02T01:39:12;7.90;75.80
5960;DHT22;3006;50.956;7.002;2024-03-02T01:41:40;7.80;76.20
5960;DHT22;3006;50.956;7.002;2024-03-02T01:44:09;7.80;76.40
5960;DHT22;3006;50.956;7.002;2024-03-02T01:46:37;7.80;76.40
5960;DHT22;3006;50.956;7.002;2024-03-02T01:49:07;7.90;76.20
5960;DHT22;3006;50.956;7.002;2024-03-02T01:51:36;7.90;76.00
5960;DHT22;3006;50.956;7.002;2024-03-02T01:54:06;8.00;75.90
5960;DHT22;3006;50.956;7.002;2024-03-02T01:56:35;7.90;75.90
5960;DHT22;3006;50.956;7.002;2024-03-02T01:59:04;7.80;76.10
5960;DHT22;3006;50.956;7.002;2024-03-02T02:01:32;7.80;76.20
5960;DHT22;3006;50.956;7.002;2024-03-02T02:04:00;7.80;76.20
5960;DHT22;3006;50.956;7.002;2024-03-02T02:06:30;7.80;76.20
5960;DHT22;3006;50.956;7.002;2024-03-02T02:08:59;7.80;76.20
5960;DHT22;3006;50.956;7.002;2024-03-02T02:11:27;7.80;76.10
5960;DHT22;3006;50.956;7.002;2024-03-02T02:13:56;7.80;76.00
5960;DHT22;3006;50.956;7.002;2024-03-02T02:16:24;7.80;75.90
5960;DHT22;3006;50.956;7.002;2024-03-02T02:18:53;7.90;75.90
5960;DHT22;3006;50.956;7.002;2024-03-02T02:21:24;7.80;76.20
5960;DHT22;3006;50.956;7.002;2024-03-02T02:23:53;7.80;76.40
5960;DHT22;3006;50.956;7.002;2024-03-02T02:26:21;7.80;76.40
5960;DHT22;3006;50.956;7.002;2024-03-02T02:28:50;7.80;76.60
5960;DHT22;3006;50.956;7.002;2024-03-02T02:31:18;7.80;76.60
5960;DHT22;3006;50.956;7.002;2024-03-02T02:33:46;7.80;76.90
5960;DHT22;3006;50.956;7.002;2024-03-02T02:36:15;7.80;76.80
5960;DHT22;3006;50.956;7.002;2024-03-02T02:38:46;7.80;76.70
5960;DHT22;3006;50.956;7.002;2024-03-02T02:41:15;7.80;76.60
5960;DHT22;3006;50.956;7.002;2024-03-02T02:43:46;7.80;76.50
5960;DHT22;3006;50.956;7.002;2024-03-02T02:46:14;7.80;76.50
5960;DHT22;3006;50.956;7.002;2024-03-02T02:48:42;7.80;76.70
5960;DHT22;3006;50.956;7.002;2024-03-02T02:51:11;7.80;76.90
5960;DHT22;3006;50.956;7.002;2024-03-02T02:53:40;7.80;76.70
5960;DHT22;3006;50.956;7.002;2024-03-02T02:56:09;7.70;76.80
5960;DHT22;3006;50.956;7.002;2024-03-02T02:58:40;7.70;76.90
5960;DHT22;3006;50.956;7.002;2024-03-02T03:01:08;7.80;76.60
5960;DHT22;3006;50.956;7.002;2024-03-02T03:03:37;7.80;76.50
5960;DHT22;3006;50.956;7.002;2024-03-02T03:06:06;7.80;76.70
5960;DHT22;3006;50.956;7.002;2024-03-02T03:08:35;7.80;76.70
5960;DHT22;3006;50.956;7.002;2024-03-02T03:11:04;7.70;76.80
5960;DHT22;3006;50.956;7.002;2024-03-02T03:13:35;7.70;76.70
5960;DHT22;3006;50.956;7.002;2024-03-02T03:16:04;7.70;76.80
5960;DHT22;3006;50.956;7.002;2024-03-02T03:18:33;7.80;76.60
5960;DHT22;3006;50.956;7.002;2024-03-02T03:21:01;7.80;76.20
5960;DHT22;3006;50.956;7.002;2024-03-02T03:23:29;7.80;76.10
5960;DHT22;3006;50.956;7.002;2024-03-02T03:26:00;7.80;76.10
5960;DHT22;3006;50.956;7.002;2024-03-02T03:28:28;7.80;75.90
5960;DHT22;3006;50.956;7.002;2024-03-02T03:30:58;7.80;76.00
5960;DHT22;3006;50.956;7.002;2024-03-02T03:33:26;7.80;76.00
5960;DHT22;3006;50.956;7.002;2024-03-02T03:35:55;7.80;75.80
5960;DHT22;3006;50.956;7.002;2024-03-02T03:38:23;7.80;75.60
5960;DHT22;3006;50.956;7.002;2024-03-02T03:40:53;7.80;75.80
5960;DHT22;3006;50.956;7.002;2024-03-02T03:43:23;7.80;75.70
5960;DHT22;3006;50.956;7.002;2024-03-02T03:45:53;7.90;75.40
5960;DHT22;3006;50.956;7.002;2024-03-02T03:48:22;7.90;75.30
5960;DHT22;3006;50.956;7.002;2024-03-02T03:50:51;7.90;75.30
5960;DHT22;3006;50.956;7.002;2024-03-02T03:53:22;8.00;75.20
5960;DHT22;3006;50.956;7.002;2024-03-02T03:55:52;7.90;75.10
5960;DHT22;3006;50.956;7.002;2024-03-02T03:58:20;7.80;75.20
5960;DHT22;3006;50.956;7.002;2024-03-02T04:00:49;7.80;75.40
5960;DHT22;3006;50.956;7.002;2024-03-02T04:03:17;7.80;75.60
5960;DHT22;3006;50.956;7.002;2024-03-02T04:05:50;7.80;75.70
5960;DHT22;3006;50.956;7.002;2024-03-02T04:08:18;7.80;75.50
5960;DHT22;3006;50.956;7.002;2024-03-02T04:10:46;7.80;75.80
5960;DHT22;3006;50.956;7.002;2024-03-02T04:13:15;7.70;76.00
5960;DHT22;3006;50.956;7.002;2024-03-02T04:15:44;7.60;76.00
5960;DHT22;3006;50.956;7.002;2024-03-02T04:18:15;7.60;75.90
5960;DHT22;3006;50.956;7.002;2024-03-02T04:20:43;7.60;76.20
5960;DHT22;3006;50.956;7.002;2024-03-02T04:23:13;7.60;76.30
5960;DHT22;3006;50.956;7.002;2024-03-02T04:25:42;7.60;76.50
5960;DHT22;3006;50.956;7.002;2024-03-02T04:28:10;7.50;76.60
5960;DHT22;3006;50.956;7.002;2024-03-02T04:30:39;7.50;76.80
5960;DHT22;3006;50.956;7.002;2024-03-02T04:33:08;7.60;76.50
5960;DHT22;3006;50.956;7.002;2024-03-02T04:35:37;7.60;76.50
5960;DHT22;3006;50.956;7.002;2024-03-02T04:38:05;7.60;76.40
5960;DHT22;3006;50.956;7.002;2024-03-02T04:40:35;7.60;76.30
5960;DHT22;3006;50.956;7.002;2024-03-02T04:43:03;7.50;76.60
5960;DHT22;3006;50.956;7.002;2024-03-02T04:45:37;7.50;76.90
5960;DHT22;3006;50.956;7.002;2024-03-02T04:48:07;7.40;77.20
5960;DHT22;3006;50.956;7.002;2024-03-02T04:50:36;7.40;77.50
5960;DHT22;3006;50.956;7.002;2024-03-02T04:53:04;7.30;77.80
5960;DHT22;3006;50.956;7.002;2024-03-02T04:55:32;7.30;77.80
5960;DHT22;3006;50.956;7.002;2024-03-02T04:58:33;7.20;78.00
5960;DHT22;3006;50.956;7.002;2024-03-02T05:01:01;7.20;78.10
5960;DHT22;3006;50.956;7.002;2024-03-02T05:03:30;7.20;78.10
5960;DHT22;3006;50.956;7.002;2024-03-02T05:05:58;7.30;77.90
5960;DHT22;3006;50.956;7.002;2024-03-02T05:08:28;7.20;78.10
5960;DHT22;3006;50.956;7.002;2024-03-02T05:10:57;7.20;78.20
5960;DHT22;3006;50.956;7.002;2024-03-02T05:13:47;7.10;78.50
5960;DHT22;3006;50.956;7.002;2024-03-02T05:16:15;7.00;79.00
5960;DHT22;3006;50.956;7.002;2024-03-02T05:18:44;7.00;79.00
5960;DHT22;3006;50.956;7.002;2024-03-02T05:21:15;7.00;79.00
5960;DHT22;3006;50.956;7.002;2024-03-02T05:23:44;7.00;79.40
5960;DHT22;3006;50.956;7.002;2024-03-02T05:26:13;7.00;79.50
5960;DHT22;3006;50.956;7.002;2024-03-02T05:28:43;6.90;80.00
5960;DHT22;3006;50.956;7.002;2024-03-02T05:31:15;6.80;80.20
5960;DHT22;3006;50.956;7.002;2024-03-02T05:33:43;6.90;80.10
5960;DHT22;3006;50.956;7.002;2024-03-02T05:36:12;6.80;80.10
5960;DHT22;3006;50.956;7.002;2024-03-02T05:38:40;6.80;80.20
5960;DHT22;3006;50.956;7.002;2024-03-02T05:41:11;6.80;80.30
5960;DHT22;3006;50.956;7.002;2024-03-02T05:43:39;6.80;80.30
5960;DHT22;3006;50.956;7.002;2024-03-02T05:46:11;6.80;80.10
5960;DHT22;3006;50.956;7.002;2024-03-02T05:48:59;6.80;80.30
5960;DHT22;3006;50.956;7.002;2024-03-02T05:51:50;6.70;80.70
5960;DHT22;3006;50.956;7.002;2024-03-02T05:54:18;6.60;81.00
5960;DHT22;3006;50.956;7.002;2024-03-02T05:56:46;6.60;81.10
5960;DHT22;3006;50.956;7.002;2024-03-02T05:59:15;6.60;81.10
5960;DHT22;3006;50.956;7.002;2024-03-02T06:01:45;6.60;81.20
5960;DHT22;3006;50.956;7.002;2024-03-02T06:04:15;6.60;81.40
5960;DHT22;3006;50.956;7.002;2024-03-02T06:06:44;6.60;81.40
5960;DHT22;3006;50.956;7.002;2024-03-02T06:09:13;6.60;81.60
5960;DHT22;3006;50.956;7.002;2024-03-02T06:11:43;6.60;81.50
5960;DHT22;3006;50.956;7.002;2024-03-02T06:14:11;6.60;81.60
5960;DHT22;3006;50.956;7.002;2024-03-02T06:16:40;6.70;81.70
5960;DHT22;3006;50.956;7.002;2024-03-02T06:19:08;6.70;81.60
5960;DHT22;3006;50.956;7.002;2024-03-02T06:21:38;6.60;81.90
5960;DHT22;3006;50.956;7.002;2024-03-02T06:24:07;6.60;82.10
5960;DHT22;3006;50.956;7.002;2024-03-02T06:26:35;6.60;82.50
5960;DHT22;3006;50.956;7.002;2024-03-02T06:29:03;6.60;82.60
5960;DHT22;3006;50.956;7.002;2024-03-02T06:31:31;6.70;82.40
5960;DHT22;3006;50.956;7.002;2024-03-02T06:34:00;6.70;82.60
5960;DHT22;3006;50.956;7.002;2024-03-02T06:36:31;6.60;82.90
5960;DHT22;3006;50.956;7.002;2024-03-02T06:39:01;6.60;83.10
5960;DHT22;3006;50.956;7.002;2024-03-02T06:41:29;6.60;83.20
5960;DHT22;3006;50.956;7.002;2024-03-02T06:43:58;6.60;83.30
5960;DHT22;3006;50.956;7.002;2024-03-02T06:46:27;6.60;83.70
5960;DHT22;3006;50.956;7.002;2024-03-02T06:48:56;6.60;83.70
5960;DHT22;3006;50.956;7.002;2024-03-02T06:51:24;6.60;83.80
5960;DHT22;3006;50.956;7.002;2024-03-02T06:53:52;6.70;83.70
5960;DHT22;3006;50.956;7.002;2024-03-02T06:56:22;6.80;83.40
5960;DHT22;3006;50.956;7.002;2024-03-02T06:58:50;6.90;83.00
5960;DHT22;3006;50.956;7.002;2024-03-02T07:01:19;6.90;82.90
5960;DHT22;3006;50.956;7.002;2024-03-02T07:03:51;6.90;83.20
5960;DHT22;3006;50.956;7.002;2024-03-02T07:06:20;7.00;83.20
5960;DHT22;3006;50.956;7.002;2024-03-02T07:08:48;7.00;83.20
5960;DHT22;3006;50.956;7.002;2024-03-02T07:11:17;6.90;83.00
5960;DHT22;3006;50.956;7.002;2024-03-02T07:13:47;6.90;83.10
5960;DHT22;3006;50.956;7.002;2024-03-02T07:16:15;7.00;82.80
5960;DHT22;3006;50.956;7.002;2024-03-02T07:18:55;7.10;82.80
5960;DHT22;3006;50.956;7.002;2024-03-02T07:21:24;7.20;82.40
5960;DHT22;3006;50.956;7.002;2024-03-02T07:23:55;7.30;82.20
5960;DHT22;3006;50.956;7.002;2024-03-02T07:26:26;7.40;81.90
5960;DHT22;3006;50.956;7.002;2024-03-02T07:28:59;7.50;81.50
5960;DHT22;3006;50.956;7.002;2024-03-02T07:31:28;7.50;81.30
5960;DHT22;3006;50.956;7.002;2024-03-02T07:33:57;7.60;80.90
5960;DHT22;3006;50.956;7.002;2024-03-02T07:36:25;7.70;80.70
5960;DHT22;3006;50.956;7.002;2024-03-02T07:38:54;7.80;80.40
5960;DHT22;3006;50.956;7.002;2024-03-02T07:41:22;7.80;80.40
5960;DHT22;3006;50.956;7.002;2024-03-02T07:43:50;7.90;80.00
5960;DHT22;3006;50.956;7.002;2024-03-02T07:46:22;8.00;79.80
5960;DHT22;3006;50.956;7.002;2024-03-02T07:48:50;8.10;79.20
5960;DHT22;3006;50.956;7.002;2024-03-02T07:51:19;8.10;79.10
5960;DHT22;3006;50.956;7.002;2024-03-02T07:53:48;8.10;78.60
5960;DHT22;3006;50.956;7.002;2024-03-02T07:56:17;8.10;78.10
5960;DHT22;3006;50.956;7.002;2024-03-02T07:58:49;8.10;78.30
5960;DHT22;3006;50.956;7.002;2024-03-02T08:01:18;8.10;78.30
5960;DHT22;3006;50.956;7.002;2024-03-02T08:03:49;8.10;78.00
5960;DHT22;3006;50.956;7.002;2024-03-02T08:06:19;8.10;78.40
5960;DHT22;3006;50.956;7.002;2024-03-02T08:08:48;8.30;78.10
5960;DHT22;3006;50.956;7.002;2024-03-02T08:11:17;8.30;77.70
5960;DHT22;3006;50.956;7.002;2024-03-02T08:13:45;8.50;77.50
5960;DHT22;3006;50.956;7.002;2024-03-02T08:16:16;8.60;77.10
5960;DHT22;3006;50.956;7.002;2024-03-02T08:18:46;8.70;76.50
5960;DHT22;3006;50.956;7.002;2024-03-02T08:21:16;8.90;76.30
5960;DHT22;3006;50.956;7.002;2024-03-02T08:23:45;9.00;75.50
5960;DHT22;3006;50.956;7.002;2024-03-02T08:26:14;9.00;75.60
5960;DHT22;3006;50.956;7.002;2024-03-02T08:28:43;9.10;75.30
5960;DHT22;3006;50.956;7.002;2024-03-02T08:31:14;9.10;75.50
5960;DHT22;3006;50.956;7.002;2024-03-02T08:33:45;9.20;75.10
5960;DHT22;3006;50.956;7.002;2024-03-02T08:36:13;9.20;74.80
5960;DHT22;3006;50.956;7.002;2024-03-02T08:38:44;9.30;74.80
5960;DHT22;3006;50.956;7.002;2024-03-02T08:41:12;9.30;74.70
5960;DHT22;3006;50.956;7.002;2024-03-02T08:43:43;9.40;74.90
5960;DHT22;3006;50.956;7.002;2024-03-02T08:46:12;9.40;74.70
5960;DHT22;3006;50.956;7.002;2024-03-02T08:48:42;9.50;74.30
5960;DHT22;3006;50.956;7.002;2024-03-02T08:51:10;9.40;74.60
5960;DHT22;3006;50.956;7.002;2024-03-02T08:53:39;9.40;75.00
5960;DHT22;3006;50.956;7.002;2024-03-02T08:56:09;9.40;74.80
5960;DHT22;3006;50.956;7.002;2024-03-02T08:58:37;9.50;75.00
5960;DHT22;3006;50.956;7.002;2024-03-02T09:01:05;9.60;74.20
5960;DHT22;3006;50.956;7.002;2024-03-02T09:03:35;9.70;73.90
5960;DHT22;3006;50.956;7.002;2024-03-02T09:06:04;9.70;73.60
5960;DHT22;3006;50.956;7.002;2024-03-02T09:08:32;9.80;73.40
5960;DHT22;3006;50.956;7.002;2024-03-02T09:11:03;9.90;73.10
5960;DHT22;3006;50.956;7.002;2024-03-02T09:13:33;10.00;73.00
5960;DHT22;3006;50.956;7.002;2024-03-02T09:16:02;10.00;72.30
5960;DHT22;3006;50.956;7.002;2024-03-02T09:18:32;10.00;72.30
5960;DHT22;3006;50.956;7.002;2024-03-02T09:21:01;10.00;72.00
5960;DHT22;3006;50.956;7.002;2024-03-02T09:23:29;10.00;72.20
5960;DHT22;3006;50.956;7.002;2024-03-02T09:25:58;10.00;72.10
5960;DHT22;3006;50.956;7.002;2024-03-02T09:28:26;10.20;71.40
5960;DHT22;3006;50.956;7.002;2024-03-02T09:30:56;10.10;71.30
5960;DHT22;3006;50.956;7.002;2024-03-02T09:33:27;10.20;71.50
5960;DHT22;3006;50.956;7.002;2024-03-02T09:35:55;10.30;71.20
5960;DHT22;3006;50.956;7.002;2024-03-02T09:38:23;10.40;70.70
5960;DHT22;3006;50.956;7.002;2024-03-02T09:40:52;10.50;70.70
5960;DHT22;3006;50.956;7.002;2024-03-02T09:43:23;10.70;69.60
5960;DHT22;3006;50.956;7.002;2024-03-02T09:45:52;10.50;69.80
5960;DHT22;3006;50.956;7.002;2024-03-02T09:48:23;10.30;70.00
5960;DHT22;3006;50.956;7.002;2024-03-02T09:50:51;10.30;70.50
5960;DHT22;3006;50.956;7.002;2024-03-02T09:53:20;10.40;69.90
5960;DHT22;3006;50.956;7.002;2024-03-02T09:55:50;10.40;69.70
5960;DHT22;3006;50.956;7.002;2024-03-02T09:58:19;10.40;69.80
5960;DHT22;3006;50.956;7.002;2024-03-02T10:00:48;10.40;69.60
5960;DHT22;3006;50.956;7.002;2024-03-02T10:03:19;10.30;69.80
5960;DHT22;3006;50.956;7.002;2024-03-02T10:05:49;10.40;69.60
5960;DHT22;3006;50.956;7.002;2024-03-02T10:08:18;10.50;69.50
5960;DHT22;3006;50.956;7.002;2024-03-02T10:10:47;10.50;69.20
5960;DHT22;3006;50.956;7.002;2024-03-02T10:13:15;10.60;69.30
5960;DHT22;3006;50.956;7.002;2024-03-02T10:15:45;10.70;68.90
5960;DHT22;3006;50.956;7.002;2024-03-02T10:18:13;10.70;68.80
5960;DHT22;3006;50.956;7.002;2024-03-02T10:20:42;10.80;68.90
5960;DHT22;3006;50.956;7.002;2024-03-02T10:23:14;10.80;68.60
5960;DHT22;3006;50.956;7.002;2024-03-02T10:25:43;10.90;68.50
5960;DHT22;3006;50.956;7.002;2024-03-02T10:28:24;10.90;68.50
5960;DHT22;3006;50.956;7.002;2024-03-02T10:30:55;11.00;68.10
5960;DHT22;3006;50.956;7.002;2024-03-02T10:33:27;11.00;68.00
5960;DHT22;3006;50.956;7.002;2024-03-02T10:35:56;11.10;67.70
5960;DHT22;3006;50.956;7.002;2024-03-02T10:38:27;11.20;66.80
5960;DHT22;3006;50.956;7.002;2024-03-02T10:40:59;11.30;67.10
5960;DHT22;3006;50.956;7.002;2024-03-02T10:43:28;11.40;67.00
5960;DHT22;3006;50.956;7.002;2024-03-02T10:45:58;11.50;66.40
5960;DHT22;3006;50.956;7.002;2024-03-02T10:48:27;11.50;66.10
5960;DHT22;3006;50.956;7.002;2024-03-02T10:50:57;11.70;65.90
5960;DHT22;3006;50.956;7.002;2024-03-02T10:53:29;11.70;65.30
5960;DHT22;3006;50.956;7.002;2024-03-02T10:56:05;11.70;65.10
5960;DHT22;3006;50.956;7.002;2024-03-02T10:58:36;11.70;65.00
5960;DHT22;3006;50.956;7.002;2024-03-02T11:01:06;11.90;65.10
5960;DHT22;3006;50.956;7.002;2024-03-02T11:03:36;11.90;64.40
5960;DHT22;3006;50.956;7.002;2024-03-02T11:06:08;12.00;63.90
5960;DHT22;3006;50.956;7.002;2024-03-02T11:08:40;12.00;64.00
5960;DHT22;3006;50.956;7.002;2024-03-02T11:11:14;11.90;63.70
5960;DHT22;3006;50.956;7.002;2024-03-02T11:13:49;12.00;64.00
5960;DHT22;3006;50.956;7.002;2024-03-02T11:16:25;12.00;63.70
5960;DHT22;3006;50.956;7.002;2024-03-02T11:18:57;11.90;63.60
5960;DHT22;3006;50.956;7.002;2024-03-02T11:21:28;12.00;64.00
5960;DHT22;3006;50.956;7.002;2024-03-02T11:24:00;12.00;64.00
5960;DHT22;3006;50.956;7.002;2024-03-02T11:26:29;12.00;64.00
5960;DHT22;3006;50.956;7.002;2024-03-02T11:29:07;12.10;64.10
5960;DHT22;3006;50.956;7.002;2024-03-02T11:31:59;12.20;63.30
5960;DHT22;3006;50.956;7.002;2024-03-02T11:34:32;12.30;63.90
5960;DHT22;3006;50.956;7.002;2024-03-02T11:37:01;12.40;63.30
5960;DHT22;3006;50.956;7.002;2024-03-02T11:39:32;12.50;63.40
5960;DHT22;3006;50.956;7.002;2024-03-02T11:42:00;12.50;63.50
5960;DHT22;3006;50.956;7.002;2024-03-02T11:44:32;12.50;62.80
5960;DHT22;3006;50.956;7.002;2024-03-02T11:47:05;12.50;63.20
5960;DHT22;3006;50.956;7.002;2024-03-02T11:49:37;12.50;63.60
5960;DHT22;3006;50.956;7.002;2024-03-02T11:52:07;12.50;62.80
5960;DHT22;3006;50.956;7.002;2024-03-02T11:54:39;12.50;63.00
5960;DHT22;3006;50.956;7.002;2024-03-02T11:57:08;12.50;62.90
5960;DHT22;3006;50.956;7.002;2024-03-02T11:59:39;12.50;63.20
5960;DHT22;3006;50.956;7.002;2024-03-02T12:02:14;12.50;63.30
5960;DHT22;3006;50.956;7.002;2024-03-02T12:04:44;12.70;63.00
5960;DHT22;3006;50.956;7.002;2024-03-02T12:07:18;12.60;62.90
5960;DHT22;3006;50.956;7.002;2024-03-02T12:09:48;12.80;62.90
5960;DHT22;3006;50.956;7.002;2024-03-02T12:12:17;12.90;62.70
5960;DHT22;3006;50.956;7.002;2024-03-02T12:14:51;12.80;62.70
5960;DHT22;3006;50.956;7.002;2024-03-02T12:17:22;12.80;62.90
5960;DHT22;3006;50.956;7.002;2024-03-02T12:19:51;12.70;62.90
5960;DHT22;3006;50.956;7.002;2024-03-02T12:22:24;12.50;63.60
5960;DHT22;3006;50.956;7.002;2024-03-02T12:25:06;12.70;63.50
5960;DHT22;3006;50.956;7.002;2024-03-02T12:27:35;12.70;62.90
5960;DHT22;3006;50.956;7.002;2024-03-02T12:30:04;12.90;63.20
5960;DHT22;3006;50.956;7.002;2024-03-02T12:32:35;13.00;62.50
5960;DHT22;3006;50.956;7.002;2024-03-02T12:35:07;13.20;62.40
5960;DHT22;3006;50.956;7.002;2024-03-02T12:37:42;13.10;62.20
5960;DHT22;3006;50.956;7.002;2024-03-02T12:40:13;13.10;62.60
5960;DHT22;3006;50.956;7.002;2024-03-02T12:42:41;13.30;62.10
5960;DHT22;3006;50.956;7.002;2024-03-02T12:45:10;13.30;60.90
5960;DHT22;3006;50.956;7.002;2024-03-02T12:47:40;13.30;60.70
5960;DHT22;3006;50.956;7.002;2024-03-02T12:50:10;13.50;60.80
5960;DHT22;3006;50.956;7.002;2024-03-02T12:52:41;13.50;60.70
5960;DHT22;3006;50.956;7.002;2024-03-02T12:55:09;13.50;60.10
5960;DHT22;3006;50.956;7.002;2024-03-02T12:57:40;13.50;60.40
5960;DHT22;3006;50.956;7.002;2024-03-02T13:00:11;13.50;61.20
5960;DHT22;3006;50.956;7.002;2024-03-02T13:02:41;13.50;61.00
5960;DHT22;3006;50.956;7.002;2024-03-02T13:05:09;13.50;61.40
5960;DHT22;3006;50.956;7.002;2024-03-02T13:07:39;13.70;60.80
5960;DHT22;3006;50.956;7.002;2024-03-02T13:10:08;13.60;60.30
5960;DHT22;3006;50.956;7.002;2024-03-02T13:12:37;13.60;60.70
5960;DHT22;3006;50.956;7.002;2024-03-02T13:15:08;13.60;60.70
5960;DHT22;3006;50.956;7.002;2024-03-02T13:17:44;13.90;60.40
5960;DHT22;3006;50.956;7.002;2024-03-02T13:20:16;13.70;60.00
5960;DHT22;3006;50.956;7.002;2024-03-02T13:22:49;13.80;60.10
5960;DHT22;3006;50.956;7.002;2024-03-02T13:25:17;13.90;60.00
5960;DHT22;3006;50.956;7.002;2024-03-02T13:27:46;13.90;59.80
5960;DHT22;3006;50.956;7.002;2024-03-02T13:30:16;13.90;60.10
5960;DHT22;3006;50.956;7.002;2024-03-02T13:32:45;13.70;60.30
5960;DHT22;3006;50.956;7.002;2024-03-02T13:35:13;13.70;61.00
5960;DHT22;3006;50.956;7.002;2024-03-02T13:37:42;13.80;60.10
5960;DHT22;3006;50.956;7.002;2024-03-02T13:40:10;13.70;60.10
5960;DHT22;3006;50.956;7.002;2024-03-02T13:42:44;13.60;60.50
5960;DHT22;3006;50.956;7.002;2024-03-02T13:45:13;13.70;60.60
5960;DHT22;3006;50.956;7.002;2024-03-02T13:47:43;13.90;60.40
5960;DHT22;3006;50.956;7.002;2024-03-02T13:50:11;14.10;59.80
5960;DHT22;3006;50.956;7.002;2024-03-02T13:52:39;14.50;58.80
5960;DHT22;3006;50.956;7.002;2024-03-02T13:55:08;14.40;58.90
5960;DHT22;3006;50.956;7.002;2024-03-02T13:57:37;14.70;58.40
5960;DHT22;3006;50.956;7.002;2024-03-02T14:00:10;14.90;57.90
5960;DHT22;3006;50.956;7.002;2024-03-02T14:02:39;15.10;57.10
5960;DHT22;3006;50.956;7.002;2024-03-02T14:05:09;15.40;56.80
5960;DHT22;3006;50.956;7.002;2024-03-02T14:07:38;15.40;56.10
5960;DHT22;3006;50.956;7.002;2024-03-02T14:10:09;15.00;56.70
5960;DHT22;3006;50.956;7.002;2024-03-02T14:12:38;14.80;57.30
5960;DHT22;3006;50.956;7.002;2024-03-02T14:15:07;14.70;57.80
5960;DHT22;3006;50.956;7.002;2024-03-02T14:17:35;14.60;58.80
5960;DHT22;3006;50.956;7.002;2024-03-02T14:20:05;15.10;58.30
5960;DHT22;3006;50.956;7.002;2024-03-02T14:22:36;16.30;54.30
5960;DHT22;3006;50.956;7.002;2024-03-02T14:25:05;15.60;55.70
5960;DHT22;3006;50.956;7.002;2024-03-02T14:27:34;16.30;55.00
5960;DHT22;3006;50.956;7.002;2024-03-02T14:30:23;16.00;54.00
5960;DHT22;3006;50.956;7.002;2024-03-02T14:32:52;15.20;56.20
5960;DHT22;3006;50.956;7.002;2024-03-02T14:35:20;15.20;55.80
5960;DHT22;3006;50.956;7.002;2024-03-02T14:37:51;14.90;56.60
5960;DHT22;3006;50.956;7.002;2024-03-02T14:40:19;14.50;57.00
5960;DHT22;3006;50.956;7.002;2024-03-02T14:42:48;14.20;57.60
5960;DHT22;3006;50.956;7.002;2024-03-02T14:45:19;13.90;57.90
5960;DHT22;3006;50.956;7.002;2024-03-02T14:47:47;13.90;58.20
5960;DHT22;3006;50.956;7.002;2024-03-02T14:50:16;13.70;58.60
5960;DHT22;3006;50.956;7.002;2024-03-02T14:52:44;13.70;58.40
5960;DHT22;3006;50.956;7.002;2024-03-02T14:55:14;13.70;58.70
5960;DHT22;3006;50.956;7.002;2024-03-02T14:57:44;13.70;58.70
5960;DHT22;3006;50.956;7.002;2024-03-02T15:00:13;13.70;59.10
5960;DHT22;3006;50.956;7.002;2024-03-02T15:02:42;13.70;58.80
5960;DHT22;3006;50.956;7.002;2024-03-02T15:05:10;13.70;58.60
5960;DHT22;3006;50.956;7.002;2024-03-02T15:07:38;13.60;58.60
5960;DHT22;3006;50.956;7.002;2024-03-02T15:10:07;13.50;58.20
5960;DHT22;3006;50.956;7.002;2024-03-02T15:12:37;13.50;58.10
5960;DHT22;3006;50.956;7.002;2024-03-02T15:15:06;13.40;58.40
5960;DHT22;3006;50.956;7.002;2024-03-02T15:17:37;13.40;58.90
5960;DHT22;3006;50.956;7.002;2024-03-02T15:20:07;13.50;59.00
5960;DHT22;3006;50.956;7.002;2024-03-02T15:22:36;13.50;59.00
5960;DHT22;3006;50.956;7.002;2024-03-02T15:25:04;13.50;59.00
5960;DHT22;3006;50.956;7.002;2024-03-02T15:27:33;13.50;59.00
5960;DHT22;3006;50.956;7.002;2024-03-02T15:30:04;13.60;58.70
5960;DHT22;3006;50.956;7.002;2024-03-02T15:32:33;13.60;58.30
5960;DHT22;3006;50.956;7.002;2024-03-02T15:35:04;13.60;58.20
5960;DHT22;3006;50.956;7.002;2024-03-02T15:37:33;13.60;57.90
5960;DHT22;3006;50.956;7.002;2024-03-02T15:40:01;13.60;57.90
5960;DHT22;3006;50.956;7.002;2024-03-02T15:42:34;13.50;57.50
5960;DHT22;3006;50.956;7.002;2024-03-02T15:45:05;13.50;57.60
5960;DHT22;3006;50.956;7.002;2024-03-02T15:47:34;13.50;57.80
5960;DHT22;3006;50.956;7.002;2024-03-02T15:50:05;13.50;57.70
5960;DHT22;3006;50.956;7.002;2024-03-02T15:52:33;13.50;57.60
5960;DHT22;3006;50.956;7.002;2024-03-02T15:55:02;13.50;57.40
5960;DHT22;3006;50.956;7.002;2024-03-02T15:57:34;13.50;57.60
5960;DHT22;3006;50.956;7.002;2024-03-02T16:00:05;13.50;57.60
5960;DHT22;3006;50.956;7.002;2024-03-02T16:02:39;13.50;57.60
5960;DHT22;3006;50.956;7.002;2024-03-02T16:05:08;13.50;57.50
5960;DHT22;3006;50.956;7.002;2024-03-02T16:07:36;13.50;57.50
5960;DHT22;3006;50.956;7.002;2024-03-02T16:10:07;13.50;57.60
5960;DHT22;3006;50.956;7.002;2024-03-02T16:12:35;13.40;57.30
5960;DHT22;3006;50.956;7.002;2024-03-02T16:15:06;13.50;57.70
5960;DHT22;3006;50.956;7.002;2024-03-02T16:17:36;13.50;57.50
5960;DHT22;3006;50.956;7.002;2024-03-02T16:20:05;13.50;57.40
5960;DHT22;3006;50.956;7.002;2024-03-02T16:22:35;13.50;57.60
5960;DHT22;3006;50.956;7.002;2024-03-02T16:25:05;13.50;57.20
5960;DHT22;3006;50.956;7.002;2024-03-02T16:27:34;13.50;57.30